sensor_id;sensor_type;location;lat;lon;timestamp;pressure;altitude;pressure_sealevel;temperature;humidity
6224;BME280;3145;42.726;23.342;2023-02-15T00:00:09;96568.19;;;2.03;91.45
6224;BME280;3145;42.726;23.342;2023-02-15T00:02:36;96569.09;;;2.02;90.90
6224;BME280;3145;42.726;23.342;2023-02-15T00:05:03;96556.94;;;1.89;91.50
6224;BME280;3145;42.726;23.342;2023-02-15T00:07:30;96583.06;;;2.01;91.03
6224;BME280;3145;42.726;23.342;2023-02-15T00:09:57;96583.06;;;2.01;91.64
6224;BME280;3145;42.726;23.342;2023-02-15T00:12:23;96575.31;;;1.87;91.51
6224;BME280;3145;42.726;23.342;2023-02-15T00:14:50;96586.81;;;1.97;91.48
6224;BME280;3145;42.726;23.342;2023-02-15T00:17:18;96580.28;;;1.90;92.35
6224;BME280;3145;42.726;23.342;2023-02-15T00:19:45;96595.13;;;1.90;93.12
6224;BME280;3145;42.726;23.342;2023-02-15T00:22:12;96585.31;;;1.93;92.38
6224;BME280;3145;42.726;23.342;2023-02-15T00:24:38;96576.78;;;1.91;92.25
6224;BME280;3145;42.726;23.342;2023-02-15T00:27:05;96532.38;;;1.52;92.90
6224;BME280;3145;42.726;23.342;2023-02-15T00:29:32;96568.13;;;1.77;92.82
6224;BME280;3145;42.726;23.342;2023-02-15T00:31:58;96595.75;;;1.93;92.74
6224;BME280;3145;42.726;23.342;2023-02-15T00:34:27;96570.47;;;1.81;93.27
6224;BME280;3145;42.726;23.342;2023-02-15T00:36:54;96589.91;;;1.90;93.32
6224;BME280;3145;42.726;23.342;2023-02-15T00:39:20;96568.97;;;1.77;93.76
6224;BME280;3145;42.726;23.342;2023-02-15T00:41:49;96585.41;;;1.92;93.04
6224;BME280;3145;42.726;23.342;2023-02-15T00:44:16;96567.94;;;1.80;93.15
6224;BME280;3145;42.726;23.342;2023-02-15T00:46:42;96592.50;;;1.90;93.60
6224;BME280;3145;42.726;23.342;2023-02-15T00:49:09;96589.22;;;1.86;93.45
6224;BME280;3145;42.726;23.342;2023-02-15T00:51:38;96584.50;;;1.93;93.00
6224;BME280;3145;42.726;23.342;2023-02-15T00:54:04;96586.34;;;1.91;92.68
6224;BME280;3145;42.726;23.342;2023-02-15T00:56:31;96594.94;;;1.93;93.17
6224;BME280;3145;42.726;23.342;2023-02-15T00:58:58;96592.19;;;1.94;93.27
6224;BME280;3145;42.726;23.342;2023-02-15T01:01:25;96575.41;;;1.86;93.12
6224;BME280;3145;42.726;23.342;2023-02-15T01:03:52;96577.72;;;1.76;93.02
6224;BME280;3145;42.726;23.342;2023-02-15T01:06:18;96582.34;;;1.85;93.31
6224;BME280;3145;42.726;23.342;2023-02-15T01:08:47;96582.19;;;1.88;93.04
6224;BME280;3145;42.726;23.342;2023-02-15T01:11:15;96570.28;;;1.84;92.56
6224;BME280;3145;42.726;23.342;2023-02-15T01:13:47;96577.34;;;1.82;93.42
6224;BME280;3145;42.726;23.342;2023-02-15T01:16:14;96558.97;;;1.71;93.35
6224;BME280;3145;42.726;23.342;2023-02-15T01:18:40;96574.19;;;1.77;92.87
6224;BME280;3145;42.726;23.342;2023-02-15T01:21:12;96579.03;;;1.83;93.58
6224;BME280;3145;42.726;23.342;2023-02-15T01:23:40;96580.59;;;1.86;93.40
6224;BME280;3145;42.726;23.342;2023-02-15T01:26:09;96564.16;;;1.71;93.43
6224;BME280;3145;42.726;23.342;2023-02-15T01:28:36;96568.63;;;1.83;92.81
6224;BME280;3145;42.726;23.342;2023-02-15T01:31:07;96573.81;;;1.83;92.66
6224;BME280;3145;42.726;23.342;2023-02-15T01:33:34;96566.28;;;1.79;93.42
6224;BME280;3145;42.726;23.342;2023-02-15T01:36:02;96566.38;;;1.77;93.01
6224;BME280;3145;42.726;23.342;2023-02-15T01:38:30;96565.25;;;1.81;93.42
6224;BME280;3145;42.726;23.342;2023-02-15T01:40:56;96569.53;;;1.82;93.06
6224;BME280;3145;42.726;23.342;2023-02-15T01:43:48;96557.94;;;1.74;93.20
6224;BME280;3145;42.726;23.342;2023-02-15T01:46:17;96556.72;;;1.79;93.76
6224;BME280;3145;42.726;23.342;2023-02-15T01:48:48;96561.56;;;1.71;94.25
6224;BME280;3145;42.726;23.342;2023-02-15T01:51:17;96559.78;;;1.72;94.17
6224;BME280;3145;42.726;23.342;2023-02-15T01:53:50;96512.69;;;1.48;94.18
6224;BME280;3145;42.726;23.342;2023-02-15T01:56:20;96556.91;;;1.76;94.30
6224;BME280;3145;42.726;23.342;2023-02-15T01:58:51;96484.81;;;1.36;93.73
6224;BME280;3145;42.726;23.342;2023-02-15T02:01:21;96545.00;;;1.72;94.26
6224;BME280;3145;42.726;23.342;2023-02-15T02:03:55;96550.38;;;1.69;94.16
6224;BME280;3145;42.726;23.342;2023-02-15T02:06:23;96557.47;;;1.67;94.71
6224;BME280;3145;42.726;23.342;2023-02-15T02:08:51;96558.97;;;1.71;94.49
6224;BME280;3145;42.726;23.342;2023-02-15T02:11:18;96533.88;;;1.56;94.67
6224;BME280;3145;42.726;23.342;2023-02-15T02:13:45;96546.22;;;1.67;94.43
6224;BME280;3145;42.726;23.342;2023-02-15T02:16:19;96547.88;;;1.68;94.07
6224;BME280;3145;42.726;23.342;2023-02-15T02:18:58;96560.19;;;1.66;94.37
6224;BME280;3145;42.726;23.342;2023-02-15T02:21:52;96548.91;;;1.65;94.83
6224;BME280;3145;42.726;23.342;2023-02-15T02:24:52;96567.50;;;1.73;94.00
6224;BME280;3145;42.726;23.342;2023-02-15T02:27:30;96558.38;;;1.66;94.34
6224;BME280;3145;42.726;23.342;2023-02-15T02:30:18;96546.97;;;1.55;94.38
6224;BME280;3145;42.726;23.342;2023-02-15T02:33:10;96557.66;;;1.64;94.58
6224;BME280;3145;42.726;23.342;2023-02-15T02:35:45;96550.22;;;1.58;95.18
6224;BME280;3145;42.726;23.342;2023-02-15T02:38:20;96564.25;;;1.56;95.49
6224;BME280;3145;42.726;23.342;2023-02-15T02:40:55;96561.38;;;1.60;95.13
6224;BME280;3145;42.726;23.342;2023-02-15T02:43:31;96559.81;;;1.58;95.26
6224;BME280;3145;42.726;23.342;2023-02-15T02:46:05;96550.69;;;1.51;95.45
6224;BME280;3145;42.726;23.342;2023-02-15T02:48:36;96557.22;;;1.58;94.70
6224;BME280;3145;42.726;23.342;2023-02-15T02:51:03;96559.22;;;1.53;95.53
6224;BME280;3145;42.726;23.342;2023-02-15T02:53:31;96572.16;;;1.54;95.20
6224;BME280;3145;42.726;23.342;2023-02-15T02:56:04;96574.78;;;1.54;95.75
6224;BME280;3145;42.726;23.342;2023-02-15T02:58:37;96584.28;;;1.55;95.43
6224;BME280;3145;42.726;23.342;2023-02-15T03:01:10;96581.94;;;1.51;95.30
6224;BME280;3145;42.726;23.342;2023-02-15T03:03:42;96560.13;;;1.39;95.37
6224;BME280;3145;42.726;23.342;2023-02-15T03:06:12;96579.44;;;1.49;95.72
6224;BME280;3145;42.726;23.342;2023-02-15T03:08:46;96569.75;;;1.37;95.93
6224;BME280;3145;42.726;23.342;2023-02-15T03:11:14;96579.59;;;1.46;95.87
6224;BME280;3145;42.726;23.342;2023-02-15T03:13:41;96580.47;;;1.47;95.94
6224;BME280;3145;42.726;23.342;2023-02-15T03:16:09;96516.25;;;1.05;95.55
6224;BME280;3145;42.726;23.342;2023-02-15T03:18:56;96582.66;;;1.53;96.31
6224;BME280;3145;42.726;23.342;2023-02-15T03:21:32;96575.53;;;1.42;96.41
6224;BME280;3145;42.726;23.342;2023-02-15T03:24:04;96576.47;;;1.41;96.03
6224;BME280;3145;42.726;23.342;2023-02-15T03:26:34;96574.41;;;1.46;96.09
6224;BME280;3145;42.726;23.342;2023-02-15T03:29:03;96575.72;;;1.39;96.09
6224;BME280;3145;42.726;23.342;2023-02-15T03:31:34;96596.94;;;1.47;96.98
6224;BME280;3145;42.726;23.342;2023-02-15T03:34:05;96589.84;;;1.49;96.75
6224;BME280;3145;42.726;23.342;2023-02-15T03:36:37;96576.91;;;1.48;96.85
6224;BME280;3145;42.726;23.342;2023-02-15T03:39:12;96562.91;;;1.36;96.98
6224;BME280;3145;42.726;23.342;2023-02-15T03:41:46;96591.50;;;1.50;96.67
6224;BME280;3145;42.726;23.342;2023-02-15T03:44:18;96561.97;;;1.37;96.58
6224;BME280;3145;42.726;23.342;2023-02-15T03:46:49;96586.88;;;1.55;97.03
6224;BME280;3145;42.726;23.342;2023-02-15T03:49:23;96583.59;;;1.52;96.58
6224;BME280;3145;42.726;23.342;2023-02-15T03:51:53;96576.91;;;1.48;96.50
6224;BME280;3145;42.726;23.342;2023-02-15T03:54:24;96554.78;;;1.41;96.47
6224;BME280;3145;42.726;23.342;2023-02-15T03:57:11;96576.81;;;1.49;96.64
6224;BME280;3145;42.726;23.342;2023-02-15T03:59:56;96592.81;;;1.57;97.07
6224;BME280;3145;42.726;23.342;2023-02-15T04:02:47;96579.44;;;1.63;97.22
6224;BME280;3145;42.726;23.342;2023-02-15T04:05:20;96589.09;;;1.61;96.91
6224;BME280;3145;42.726;23.342;2023-02-15T04:07:47;96581.91;;;1.65;97.00
6224;BME280;3145;42.726;23.342;2023-02-15T04:10:14;96594.19;;;1.77;97.24
6224;BME280;3145;42.726;23.342;2023-02-15T04:12:58;96583.13;;;1.73;97.68
6224;BME280;3145;42.726;23.342;2023-02-15T04:15:25;96603.97;;;1.87;97.19
6224;BME280;3145;42.726;23.342;2023-02-15T04:18:09;96606.34;;;1.90;97.87
6224;BME280;3145;42.726;23.342;2023-02-15T04:20:37;96602.63;;;1.94;97.16
6224;BME280;3145;42.726;23.342;2023-02-15T04:23:21;96581.06;;;1.78;97.21
6224;BME280;3145;42.726;23.342;2023-02-15T04:26:05;96617.34;;;1.95;97.16
6224;BME280;3145;42.726;23.342;2023-02-15T04:28:32;96625.63;;;2.02;97.25
6224;BME280;3145;42.726;23.342;2023-02-15T04:30:59;96622.81;;;2.05;96.93
6224;BME280;3145;42.726;23.342;2023-02-15T04:33:26;96629.97;;;2.15;97.04
6224;BME280;3145;42.726;23.342;2023-02-15T04:35:54;96608.31;;;2.01;97.18
6224;BME280;3145;42.726;23.342;2023-02-15T04:38:21;96635.09;;;2.17;96.65
6224;BME280;3145;42.726;23.342;2023-02-15T04:40:49;96635.72;;;2.20;96.96
6224;BME280;3145;42.726;23.342;2023-02-15T04:43:17;96634.03;;;2.19;96.35
6224;BME280;3145;42.726;23.342;2023-02-15T04:45:47;96617.28;;;2.09;96.04
6224;BME280;3145;42.726;23.342;2023-02-15T04:48:15;96604.19;;;2.11;96.42
6224;BME280;3145;42.726;23.342;2023-02-15T04:50:42;96634.03;;;2.19;96.44
6224;BME280;3145;42.726;23.342;2023-02-15T04:53:10;96605.03;;;2.11;96.22
6224;BME280;3145;42.726;23.342;2023-02-15T04:55:37;96648.91;;;2.31;95.90
6224;BME280;3145;42.726;23.342;2023-02-15T04:58:04;96635.72;;;2.20;95.28
6224;BME280;3145;42.726;23.342;2023-02-15T05:00:31;96653.88;;;2.22;94.72
6224;BME280;3145;42.726;23.342;2023-02-15T05:02:58;96619.53;;;2.01;94.61
6224;BME280;3145;42.726;23.342;2023-02-15T05:05:24;96641.50;;;2.11;94.27
6224;BME280;3145;42.726;23.342;2023-02-15T05:07:51;96646.50;;;2.14;93.75
6224;BME280;3145;42.726;23.342;2023-02-15T05:10:20;96625.25;;;1.94;93.76
6224;BME280;3145;42.726;23.342;2023-02-15T05:12:46;96656.94;;;2.14;94.25
6224;BME280;3145;42.726;23.342;2023-02-15T05:15:13;96626.66;;;1.99;93.70
6224;BME280;3145;42.726;23.342;2023-02-15T05:17:40;96663.38;;;2.09;94.14
6224;BME280;3145;42.726;23.342;2023-02-15T05:20:08;96657.34;;;2.08;94.01
6224;BME280;3145;42.726;23.342;2023-02-15T05:22:35;96651.34;;;2.06;94.26
6224;BME280;3145;42.726;23.342;2023-02-15T05:25:02;96657.97;;;2.12;94.56
6224;BME280;3145;42.726;23.342;2023-02-15T05:27:48;96662.72;;;2.05;94.30
6224;BME280;3145;42.726;23.342;2023-02-15T05:30:32;96675.19;;;2.14;94.82
6224;BME280;3145;42.726;23.342;2023-02-15T05:32:59;96650.00;;;2.01;94.41
6224;BME280;3145;42.726;23.342;2023-02-15T05:35:25;96662.16;;;2.14;94.46
6224;BME280;3145;42.726;23.342;2023-02-15T05:37:52;96675.34;;;2.25;94.90
6224;BME280;3145;42.726;23.342;2023-02-15T05:40:19;96676.47;;;2.35;94.73
6224;BME280;3145;42.726;23.342;2023-02-15T05:42:45;96678.66;;;2.55;95.02
6224;BME280;3145;42.726;23.342;2023-02-15T05:45:13;96682.88;;;2.70;95.04
6224;BME280;3145;42.726;23.342;2023-02-15T05:47:40;96675.44;;;2.91;95.16
6224;BME280;3145;42.726;23.342;2023-02-15T05:50:08;96676.75;;;3.10;94.60
6224;BME280;3145;42.726;23.342;2023-02-15T05:52:35;96682.22;;;3.32;94.05
6224;BME280;3145;42.726;23.342;2023-02-15T05:55:02;96686.50;;;3.33;93.64
6224;BME280;3145;42.726;23.342;2023-02-15T05:57:29;96682.22;;;3.32;92.63
6224;BME280;3145;42.726;23.342;2023-02-15T05:59:56;96681.00;;;3.50;92.17
6224;BME280;3145;42.726;23.342;2023-02-15T06:02:24;96664.06;;;3.68;92.24
6224;BME280;3145;42.726;23.342;2023-02-15T06:04:51;96680.97;;;4.00;90.51
6224;BME280;3145;42.726;23.342;2023-02-15T06:07:17;96678.28;;;4.38;91.06
6224;BME280;3145;42.726;23.342;2023-02-15T06:09:44;96687.13;;;4.60;88.66
6224;BME280;3145;42.726;23.342;2023-02-15T06:12:11;96566.09;;;4.22;88.21
6224;BME280;3145;42.726;23.342;2023-02-15T06:14:38;96677.41;;;5.10;87.17
6224;BME280;3145;42.726;23.342;2023-02-15T06:17:04;96676.66;;;5.07;85.06
6224;BME280;3145;42.726;23.342;2023-02-15T06:19:33;96690.75;;;4.94;83.80
6224;BME280;3145;42.726;23.342;2023-02-15T06:21:59;96692.22;;;4.74;83.39
6224;BME280;3145;42.726;23.342;2023-02-15T06:24:26;96691.84;;;4.55;83.98
6224;BME280;3145;42.726;23.342;2023-02-15T06:26:53;96686.53;;;4.44;84.17
6224;BME280;3145;42.726;23.342;2023-02-15T06:29:20;96697.25;;;4.41;84.41
6224;BME280;3145;42.726;23.342;2023-02-15T06:31:46;96692.53;;;4.34;84.66
6224;BME280;3145;42.726;23.342;2023-02-15T06:34:13;96690.41;;;4.39;88.60
6224;BME280;3145;42.726;23.342;2023-02-15T06:36:41;96617.00;;;3.93;89.60
6224;BME280;3145;42.726;23.342;2023-02-15T06:39:08;96688.06;;;4.23;87.45
6224;BME280;3145;42.726;23.342;2023-02-15T06:41:35;96685.84;;;4.30;88.09
6224;BME280;3145;42.726;23.342;2023-02-15T06:44:01;96679.41;;;4.10;86.33
6224;BME280;3145;42.726;23.342;2023-02-15T06:46:28;96687.25;;;4.10;86.52
6224;BME280;3145;42.726;23.342;2023-02-15T06:48:55;96692.13;;;4.15;86.11
6224;BME280;3145;42.726;23.342;2023-02-15T06:51:21;96689.41;;;4.16;85.97
6224;BME280;3145;42.726;23.342;2023-02-15T06:53:50;96680.13;;;4.12;86.00
6224;BME280;3145;42.726;23.342;2023-02-15T06:56:16;96670.31;;;4.03;86.14
6224;BME280;3145;42.726;23.342;2023-02-15T06:58:43;96699.56;;;4.21;85.87
6224;BME280;3145;42.726;23.342;2023-02-15T07:01:11;96686.00;;;4.03;85.52
6224;BME280;3145;42.726;23.342;2023-02-15T07:03:38;96694.53;;;4.18;85.51
6224;BME280;3145;42.726;23.342;2023-02-15T07:06:05;96694.34;;;4.08;86.06
6224;BME280;3145;42.726;23.342;2023-02-15T07:08:34;96687.84;;;4.14;86.48
6224;BME280;3145;42.726;23.342;2023-02-15T07:11:02;96691.31;;;4.14;86.41
6224;BME280;3145;42.726;23.342;2023-02-15T07:13:42;96691.06;;;4.30;86.02
6224;BME280;3145;42.726;23.342;2023-02-15T07:16:09;96665.28;;;4.13;85.80
6224;BME280;3145;42.726;23.342;2023-02-15T07:18:36;96704.56;;;4.36;84.82
6224;BME280;3145;42.726;23.342;2023-02-15T07:21:03;96690.75;;;4.34;84.99
6224;BME280;3145;42.726;23.342;2023-02-15T07:23:33;96702.97;;;4.46;84.02
6224;BME280;3145;42.726;23.342;2023-02-15T07:26:01;96705.59;;;4.46;83.98
6224;BME280;3145;42.726;23.342;2023-02-15T07:28:29;96674.03;;;4.24;84.81
6224;BME280;3145;42.726;23.342;2023-02-15T07:30:56;96704.94;;;4.55;84.43
6224;BME280;3145;42.726;23.342;2023-02-15T07:33:23;96683.56;;;4.61;83.99
6224;BME280;3145;42.726;23.342;2023-02-15T07:35:53;96684.56;;;4.71;83.43
6224;BME280;3145;42.726;23.342;2023-02-15T07:38:22;96691.00;;;4.91;82.85
6224;BME280;3145;42.726;23.342;2023-02-15T07:40:50;96688.25;;;4.92;82.00
6224;BME280;3145;42.726;23.342;2023-02-15T07:43:18;96693.75;;;5.00;81.63
6224;BME280;3145;42.726;23.342;2023-02-15T07:45:45;96682.03;;;4.82;81.78
6224;BME280;3145;42.726;23.342;2023-02-15T07:48:12;96670.09;;;4.78;81.62
6224;BME280;3145;42.726;23.342;2023-02-15T07:50:38;96693.47;;;4.92;81.07
6224;BME280;3145;42.726;23.342;2023-02-15T07:53:05;96693.47;;;4.92;80.39
6224;BME280;3145;42.726;23.342;2023-02-15T07:55:32;96678.44;;;4.83;80.24
6224;BME280;3145;42.726;23.342;2023-02-15T07:57:59;96686.59;;;4.91;80.64
6224;BME280;3145;42.726;23.342;2023-02-15T08:00:27;96686.59;;;4.91;80.67
6224;BME280;3145;42.726;23.342;2023-02-15T08:02:55;96687.81;;;4.98;79.97
6224;BME280;3145;42.726;23.342;2023-02-15T08:05:41;96687.81;;;4.98;80.09
6224;BME280;3145;42.726;23.342;2023-02-15T08:08:09;96690.94;;;5.03;79.86
6224;BME280;3145;42.726;23.342;2023-02-15T08:10:57;96690.72;;;5.07;79.55
6224;BME280;3145;42.726;23.342;2023-02-15T08:13:42;96686.53;;;5.04;80.34
6224;BME280;3145;42.726;23.342;2023-02-15T08:16:22;96688.59;;;5.12;78.88
6224;BME280;3145;42.726;23.342;2023-02-15T08:18:49;96693.81;;;5.12;79.09
6224;BME280;3145;42.726;23.342;2023-02-15T08:21:16;96697.28;;;5.12;78.58
6224;BME280;3145;42.726;23.342;2023-02-15T08:23:42;96695.50;;;5.13;78.88
6224;BME280;3145;42.726;23.342;2023-02-15T08:26:09;96694.34;;;5.28;78.32
6224;BME280;3145;42.726;23.342;2023-02-15T08:28:36;96687.38;;;5.39;77.59
6224;BME280;3145;42.726;23.342;2023-02-15T08:31:06;96689.22;;;5.50;77.77
6224;BME280;3145;42.726;23.342;2023-02-15T08:33:34;96696.38;;;5.59;76.82
6224;BME280;3145;42.726;23.342;2023-02-15T08:36:06;96674.69;;;5.57;76.26
6224;BME280;3145;42.726;23.342;2023-02-15T08:38:33;96691.34;;;5.45;75.96
6224;BME280;3145;42.726;23.342;2023-02-15T08:41:09;96695.88;;;5.54;76.10
6224;BME280;3145;42.726;23.342;2023-02-15T08:43:36;96690.94;;;5.73;75.48
6224;BME280;3145;42.726;23.342;2023-02-15T08:46:03;96679.38;;;5.75;74.64
6224;BME280;3145;42.726;23.342;2023-02-15T08:48:30;96676.31;;;5.81;74.16
6224;BME280;3145;42.726;23.342;2023-02-15T08:50:58;96694.59;;;6.05;73.07
6224;BME280;3145;42.726;23.342;2023-02-15T08:53:25;96671.56;;;5.97;72.34
6224;BME280;3145;42.726;23.342;2023-02-15T08:55:55;96657.50;;;5.87;71.81
6224;BME280;3145;42.726;23.342;2023-02-15T08:58:23;96689.56;;;6.02;70.73
6224;BME280;3145;42.726;23.342;2023-02-15T09:00:50;96659.50;;;5.84;71.35
6224;BME280;3145;42.726;23.342;2023-02-15T09:03:17;96684.78;;;6.07;70.37
6224;BME280;3145;42.726;23.342;2023-02-15T09:05:44;96681.94;;;6.10;69.96
6224;BME280;3145;42.726;23.342;2023-02-15T09:08:12;96675.25;;;5.95;69.47
6224;BME280;3145;42.726;23.342;2023-02-15T09:10:39;96693.25;;;6.21;69.26
6224;BME280;3145;42.726;23.342;2023-02-15T09:13:05;96679.69;;;6.16;68.92
6224;BME280;3145;42.726;23.342;2023-02-15T09:15:32;96689.09;;;6.41;67.82
6224;BME280;3145;42.726;23.342;2023-02-15T09:17:59;96685.75;;;6.50;67.57
6224;BME280;3145;42.726;23.342;2023-02-15T09:20:29;96692.41;;;6.54;66.62
6224;BME280;3145;42.726;23.342;2023-02-15T09:22:56;96685.00;;;6.59;66.38
6224;BME280;3145;42.726;23.342;2023-02-15T09:25:24;96693.50;;;6.62;66.11
6224;BME280;3145;42.726;23.342;2023-02-15T09:27:51;96689.19;;;6.61;65.26
6224;BME280;3145;42.726;23.342;2023-02-15T09:30:17;96675.56;;;6.67;65.48
6224;BME280;3145;42.726;23.342;2023-02-15T09:32:44;96697.44;;;6.68;64.52
6224;BME280;3145;42.726;23.342;2023-02-15T09:35:12;96688.81;;;6.66;63.66
6224;BME280;3145;42.726;23.342;2023-02-15T09:37:38;96693.78;;;6.91;63.86
6224;BME280;3145;42.726;23.342;2023-02-15T09:40:06;96696.63;;;6.99;63.40
6224;BME280;3145;42.726;23.342;2023-02-15T09:42:56;96669.34;;;7.11;62.65
6224;BME280;3145;42.726;23.342;2023-02-15T09:45:52;96688.22;;;7.16;61.09
6224;BME280;3145;42.726;23.342;2023-02-15T09:48:35;96684.38;;;7.20;61.36
6224;BME280;3145;42.726;23.342;2023-02-15T09:51:18;96687.22;;;7.28;61.09
6224;BME280;3145;42.726;23.342;2023-02-15T09:54:04;96687.63;;;7.44;60.32
6224;BME280;3145;42.726;23.342;2023-02-15T09:56:39;96662.03;;;7.46;58.81
6224;BME280;3145;42.726;23.342;2023-02-15T09:59:17;96669.34;;;7.63;57.52
6224;BME280;3145;42.726;23.342;2023-02-15T10:01:58;96680.59;;;7.65;57.30
6224;BME280;3145;42.726;23.342;2023-02-15T10:04:40;96686.13;;;7.51;56.33
6224;BME280;3145;42.726;23.342;2023-02-15T10:07:21;96679.88;;;7.42;56.94
6224;BME280;3145;42.726;23.342;2023-02-15T10:10:04;96675.41;;;7.22;57.69
6224;BME280;3145;42.726;23.342;2023-02-15T10:12:54;96683.38;;;7.32;58.06
6224;BME280;3145;42.726;23.342;2023-02-15T10:15:39;96667.97;;;7.27;57.30
6224;BME280;3145;42.726;23.342;2023-02-15T10:18:19;96646.41;;;7.13;58.11
6224;BME280;3145;42.726;23.342;2023-02-15T10:20:55;96669.84;;;7.36;57.74
6224;BME280;3145;42.726;23.342;2023-02-15T10:26:18;96657.22;;;7.71;55.81
6224;BME280;3145;42.726;23.342;2023-02-15T10:28:48;96654.22;;;7.76;56.50
6224;BME280;3145;42.726;23.342;2023-02-15T10:31:23;96631.09;;;7.79;55.70
6224;BME280;3145;42.726;23.342;2023-02-15T10:33:59;96663.25;;;8.33;55.41
6224;BME280;3145;42.726;23.342;2023-02-15T10:36:43;96644.78;;;8.24;54.35
6224;BME280;3145;42.726;23.342;2023-02-15T10:39:20;96645.84;;;8.51;53.93
6224;BME280;3145;42.726;23.342;2023-02-15T10:41:59;96642.41;;;8.21;53.09
6224;BME280;3145;42.726;23.342;2023-02-15T10:44:48;96640.00;;;8.18;53.60
6224;BME280;3145;42.726;23.342;2023-02-15T10:47:37;96635.81;;;8.06;53.97
6224;BME280;3145;42.726;23.342;2023-02-15T10:53:08;96611.50;;;7.93;55.79
6224;BME280;3145;42.726;23.342;2023-02-15T10:55:45;96628.63;;;8.38;54.57
6224;BME280;3145;42.726;23.342;2023-02-15T10:58:17;96637.16;;;8.70;53.63
6224;BME280;3145;42.726;23.342;2023-02-15T11:00:52;96617.47;;;8.74;53.08
6224;BME280;3145;42.726;23.342;2023-02-15T11:03:36;96634.13;;;8.74;52.29
6224;BME280;3145;42.726;23.342;2023-02-15T11:06:08;96625.41;;;8.93;51.68
6224;BME280;3145;42.726;23.342;2023-02-15T11:08:40;96601.53;;;8.85;51.48
6224;BME280;3145;42.726;23.342;2023-02-15T11:11:10;96616.25;;;8.97;51.45
6224;BME280;3145;42.726;23.342;2023-02-15T11:13:41;96604.78;;;8.98;51.54
6224;BME280;3145;42.726;23.342;2023-02-15T11:16:14;96621.53;;;9.16;50.98
6224;BME280;3145;42.726;23.342;2023-02-15T11:18:46;96625.56;;;9.10;51.10
6224;BME280;3145;42.726;23.342;2023-02-15T11:21:21;96616.53;;;8.75;51.62
6224;BME280;3145;42.726;23.342;2023-02-15T11:23:49;96616.84;;;9.10;51.89
6224;BME280;3145;42.726;23.342;2023-02-15T11:26:21;96614.63;;;9.15;51.40
6224;BME280;3145;42.726;23.342;2023-02-15T11:28:54;96614.56;;;9.43;51.13
6224;BME280;3145;42.726;23.342;2023-02-15T11:31:25;96615.56;;;9.52;50.78
6224;BME280;3145;42.726;23.342;2023-02-15T11:33:57;96602.22;;;9.63;50.17
6224;BME280;3145;42.726;23.342;2023-02-15T11:36:27;96615.69;;;9.50;50.23
6224;BME280;3145;42.726;23.342;2023-02-15T11:38:59;96604.34;;;9.31;50.37
6224;BME280;3145;42.726;23.342;2023-02-15T11:41:30;96599.06;;;9.40;50.78
6224;BME280;3145;42.726;23.342;2023-02-15T11:44:02;96609.88;;;9.47;50.17
6224;BME280;3145;42.726;23.342;2023-02-15T11:46:32;96598.78;;;9.15;51.11
6224;BME280;3145;42.726;23.342;2023-02-15T11:49:00;96593.53;;;9.15;50.54
6224;BME280;3145;42.726;23.342;2023-02-15T11:51:28;96584.22;;;9.11;50.91
6224;BME280;3145;42.726;23.342;2023-02-15T11:53:56;96596.56;;;9.20;50.46
6224;BME280;3145;42.726;23.342;2023-02-15T11:56:24;96599.31;;;8.99;50.76
6224;BME280;3145;42.726;23.342;2023-02-15T11:58:55;96591.28;;;9.10;50.49
6224;BME280;3145;42.726;23.342;2023-02-15T12:01:28;96582.41;;;9.11;50.92
6224;BME280;3145;42.726;23.342;2023-02-15T12:04:01;96583.38;;;9.10;50.74
6224;BME280;3145;42.726;23.342;2023-02-15T12:06:33;96578.81;;;9.12;50.46
6224;BME280;3145;42.726;23.342;2023-02-15T12:09:03;96576.19;;;9.22;50.33
6224;BME280;3145;42.726;23.342;2023-02-15T12:11:35;96565.91;;;9.09;49.82
6224;BME280;3145;42.726;23.342;2023-02-15T12:14:04;96562.44;;;9.09;50.42
6224;BME280;3145;42.726;23.342;2023-02-15T12:16:34;96562.28;;;9.10;49.69
6224;BME280;3145;42.726;23.342;2023-02-15T12:19:18;96564.94;;;9.01;50.40
6224;BME280;3145;42.726;23.342;2023-02-15T12:21:49;96566.59;;;8.83;51.11
6224;BME280;3145;42.726;23.342;2023-02-15T12:24:20;96556.06;;;8.83;50.71
6224;BME280;3145;42.726;23.342;2023-02-15T12:26:57;96555.91;;;9.03;50.52
6224;BME280;3145;42.726;23.342;2023-02-15T12:29:27;96560.50;;;8.92;50.77
6224;BME280;3145;42.726;23.342;2023-02-15T12:31:55;96553.28;;;8.75;51.64
6224;BME280;3145;42.726;23.342;2023-02-15T12:34:26;96545.25;;;8.67;51.19
6224;BME280;3145;42.726;23.342;2023-02-15T12:36:59;96547.16;;;8.65;51.72
6224;BME280;3145;42.726;23.342;2023-02-15T12:39:28;96551.31;;;8.67;51.51
6224;BME280;3145;42.726;23.342;2023-02-15T12:42:01;96548.28;;;8.72;51.25
6224;BME280;3145;42.726;23.342;2023-02-15T12:44:30;96538.28;;;8.75;51.05
6224;BME280;3145;42.726;23.342;2023-02-15T12:47:00;96536.47;;;8.57;51.30
6224;BME280;3145;42.726;23.342;2023-02-15T12:49:31;96533.72;;;8.58;51.29
6224;BME280;3145;42.726;23.342;2023-02-15T12:51:59;96539.13;;;8.57;50.97
6224;BME280;3145;42.726;23.342;2023-02-15T12:54:35;96533.59;;;8.60;51.53
6224;BME280;3145;42.726;23.342;2023-02-15T12:57:22;96536.22;;;8.60;51.33
6224;BME280;3145;42.726;23.342;2023-02-15T12:59:51;96528.16;;;8.52;51.57
6224;BME280;3145;42.726;23.342;2023-02-15T13:02:22;96535.22;;;8.51;51.53
6224;BME280;3145;42.726;23.342;2023-02-15T13:04:52;96534.69;;;8.48;51.32
6224;BME280;3145;42.726;23.342;2023-02-15T13:07:20;96531.94;;;8.59;51.51
6224;BME280;3145;42.726;23.342;2023-02-15T13:09:47;96524.56;;;8.53;51.59
6224;BME280;3145;42.726;23.342;2023-02-15T13:12:21;96472.84;;;8.33;51.57
6224;BME280;3145;42.726;23.342;2023-02-15T13:14:50;96529.97;;;8.70;50.95
6224;BME280;3145;42.726;23.342;2023-02-15T13:17:21;96513.91;;;8.73;51.19
6224;BME280;3145;42.726;23.342;2023-02-15T13:19:52;96510.84;;;8.78;50.53
6224;BME280;3145;42.726;23.342;2023-02-15T13:22:22;96520.28;;;8.80;50.40
6224;BME280;3145;42.726;23.342;2023-02-15T13:24:54;96519.44;;;8.80;50.42
6224;BME280;3145;42.726;23.342;2023-02-15T13:27:24;96515.00;;;8.71;50.46
6224;BME280;3145;42.726;23.342;2023-02-15T13:29:56;96524.44;;;8.64;50.60
6224;BME280;3145;42.726;23.342;2023-02-15T13:32:28;96496.97;;;8.57;50.18
6224;BME280;3145;42.726;23.342;2023-02-15T13:34:58;96507.09;;;8.42;50.08
6224;BME280;3145;42.726;23.342;2023-02-15T13:37:42;96520.13;;;8.53;50.40
6224;BME280;3145;42.726;23.342;2023-02-15T13:40:13;96524.38;;;8.26;51.42
6224;BME280;3145;42.726;23.342;2023-02-15T13:42:46;96534.25;;;8.33;51.34
6224;BME280;3145;42.726;23.342;2023-02-15T13:45:31;96534.38;;;8.32;51.12
6224;BME280;3145;42.726;23.342;2023-02-15T13:48:07;96526.31;;;8.24;51.03